Carrboro, North Carolina
Current Conditions -  °F | °C
As of 11:56 PM on Saturday 22 Nov 2014 (Local Time) from KIGX Reporting Station
Clear Clear  
Wind Chill:   Ceiling: Unl
Heat Index:   Visibility: 10mi
Dew Point: -5°   Wind: 0mph
Humidity: 61%   Direction: NA
Pressure: 30.32"   Gusts: NA
Location:  35.91°N, 79.08°W
Report Text: KIGX 230456Z AUTO 00000KT 10SM CLR 02/M05 A3032 RMK AO2 SLP269 T00171050 401171061
Loading
Personal Weather Stations






























Interactive Weather Map New forecast layout! Learn more

10-Day Weather Forecast

Advertisements
Track Severe Weather on mobile